Time;durP1;ratioP1;P1;durP2;ratioP2;P2;SDS_P1;SDS_P2;PMS_P1;PMS_P2;Temp;Humidity;BMP_temperature;BMP_pressure;BME280_temperature;BME280_humidity;BME280_pressure;Samples;Min_cycle;Max_cycle;Signal;HPM_P1;HPM_P2
2023/01/31 00:01:24;;;;;;;73.65;14.38;;;28.60;71.70;;;;;;5066237;28;20033;-54
2023/01/31 00:04:02;;;;;;;76.03;14.80;;;28.60;71.80;;;;;;5066040;28;20266;-56
2023/01/31 00:06:35;;;;;;;73.25;14.57;;;28.50;71.70;;;;;;5065936;28;20297;-57
2023/01/31 00:09:05;;;;;;;65.20;14.50;;;28.50;71.70;;;;;;5065898;28;20021;-55
2023/01/31 00:11:32;;;;;;;50.35;12.60;;;28.50;71.70;;;;;;5066082;28;20047;-54
2023/01/31 00:14:01;;;;;;;53.03;11.98;;;28.50;71.80;;;;;;5065729;28;20025;-55
2023/01/31 00:16:28;;;;;;;48.05;12.48;;;28.50;71.90;;;;;;5065806;28;20048;-55
2023/01/31 00:18:55;;;;;;;49.33;11.25;;;28.50;71.80;;;;;;5065713;28;20060;-56
2023/01/31 00:21:27;;;;;;;43.30;11.45;;;28.40;71.70;;;;;;5065462;28;20193;-56
2023/01/31 00:23:56;;;;;;;39.97;10.30;;;28.40;71.70;;;;;;5065744;28;20025;-58
2023/01/31 00:26:28;;;;;;;47.42;10.48;;;28.40;71.80;;;;;;5065455;28;20031;-60
2023/01/31 00:28:56;;;;;;;51.08;11.93;;;28.40;71.90;;;;;;5065468;28;20076;-57
2023/01/31 00:31:25;;;;;;;41.10;11.45;;;28.40;72.00;;;;;;5065831;28;20086;-58
2023/01/31 00:33:53;;;;;;;42.83;11.32;;;28.40;72.00;;;;;;5065264;28;20021;-56
2023/01/31 00:36:27;;;;;;;43.35;12.60;;;28.40;72.10;;;;;;5065655;28;21115;-56
2023/01/31 00:38:57;;;;;;;39.80;12.23;;;28.40;72.10;;;;;;5065489;28;20033;-55
2023/01/31 00:41:25;;;;;;;41.42;12.02;;;28.30;71.90;;;;;;5065174;28;20092;-55
2023/01/31 00:43:52;;;;;;;32.67;10.98;;;28.30;72.00;;;;;;5065791;28;20076;-56
2023/01/31 00:46:19;;;;;;;40.85;11.18;;;28.30;72.00;;;;;;5065417;28;20063;-56
2023/01/31 00:48:46;;;;;;;43.05;10.27;;;28.30;72.00;;;;;;5065496;28;20025;-57
2023/01/31 00:51:12;;;;;;;39.13;9.57;;;28.30;72.10;;;;;;5065225;28;20052;-55
2023/01/31 00:53:39;;;;;;;52.85;9.75;;;28.30;72.10;;;;;;5065418;28;20027;-53
2023/01/31 00:56:12;;;;;;;36.28;8.90;;;28.30;72.30;;;;;;5064789;28;20016;-55
2023/01/31 00:58:39;;;;;;;31.10;9.15;;;28.30;72.40;;;;;;5065150;28;20029;-57
2023/01/31 01:01:07;;;;;;;39.38;10.23;;;28.30;72.50;;;;;;5064737;28;20028;-57
2023/01/31 01:03:34;;;;;;;31.48;9.80;;;28.30;72.60;;;;;;5064691;28;20033;-57
2023/01/31 01:06:00;;;;;;;32.30;9.82;;;28.30;72.70;;;;;;5064926;28;20020;-57
2023/01/31 01:08:30;;;;;;;27.92;9.18;;;28.30;72.70;;;;;;5065162;28;20032;-59
2023/01/31 01:11:03;;;;;;;32.33;8.75;;;28.30;72.90;;;;;;5065067;28;20314;-59
2023/01/31 01:13:30;;;;;;;30.83;8.07;;;28.30;72.90;;;;;;5064737;28;20021;-56
2023/01/31 01:15:57;;;;;;;28.95;9.07;;;28.30;72.90;;;;;;5064462;28;20075;-55
2023/01/31 01:18:23;;;;;;;38.25;8.88;;;28.30;72.80;;;;;;5064927;28;20021;-56
2023/01/31 01:20:50;;;;;;;30.98;7.90;;;28.30;72.70;;;;;;5065185;28;20021;-56
2023/01/31 01:23:16;;;;;;;33.35;7.88;;;28.30;72.80;;;;;;5065063;28;20210;-57
2023/01/31 01:25:44;;;;;;;28.02;7.90;;;28.30;72.80;;;;;;5064407;28;20020;-55
2023/01/31 01:28:11;;;;;;;43.15;8.15;;;28.30;72.70;;;;;;5065216;28;20224;-55
2023/01/31 01:30:38;;;;;;;36.13;7.70;;;28.30;72.60;;;;;;5064861;28;20021;-57
2023/01/31 01:33:05;;;;;;;26.00;7.03;;;28.30;72.60;;;;;;5064795;28;20025;-56
2023/01/31 01:35:32;;;;;;;29.80;6.97;;;28.30;72.50;;;;;;5064368;28;20028;-55
2023/01/31 01:37:58;;;;;;;19.50;6.13;;;28.30;72.40;;;;;;5064732;28;20293;-55
2023/01/31 01:40:25;;;;;;;19.98;6.43;;;28.20;72.20;;;;;;5064416;28;20053;-58
2023/01/31 01:42:51;;;;;;;33.65;7.15;;;28.20;72.30;;;;;;5064680;28;20041;-55
2023/01/31 01:45:18;;;;;;;32.58;7.10;;;28.20;72.30;;;;;;5064427;28;20033;-55
2023/01/31 01:47:54;;;;;;;18.38;6.10;;;28.20;72.30;;;;;;5064854;28;20231;-57
2023/01/31 01:50:40;;;;;;;18.67;6.20;;;28.20;72.30;;;;;;5064554;28;20033;-56
2023/01/31 01:53:28;;;;;;;18.85;6.57;;;28.20;72.30;;;;;;5064428;28;20088;-57
2023/01/31 01:56:01;;;;;;;18.17;6.38;;;28.20;72.30;;;;;;5064042;28;20057;-56
2023/01/31 01:58:30;;;;;;;57.58;8.52;;;28.20;72.40;;;;;;5067597;28;20032;-57
2023/01/31 02:00:57;;;;;;;34.85;7.15;;;28.20;72.70;;;;;;5075221;28;20033;-58
2023/01/31 02:03:23;;;;;;;27.45;6.70;;;28.10;72.70;;;;;;5082392;28;20040;-61
2023/01/31 02:05:57;;;;;;;29.63;7.45;;;28.10;72.60;;;;;;5083752;28;20045;-56
2023/01/31 02:08:29;;;;;;;29.27;6.47;;;28.10;72.80;;;;;;5084256;28;20024;-58
2023/01/31 02:10:58;;;;;;;16.30;5.77;;;28.10;73.00;;;;;;5083270;28;20036;-58
2023/01/31 02:13:25;;;;;;;13.85;6.00;;;28.10;72.90;;;;;;5081474;28;20270;-56
2023/01/31 02:15:52;;;;;;;15.85;5.93;;;28.10;72.80;;;;;;5085535;28;20220;-63
2023/01/31 02:18:22;;;;;;;14.77;5.28;;;28.00;72.80;;;;;;5078747;28;20091;-58
2023/01/31 02:21:10;;;;;;;12.88;5.80;;;28.00;72.70;;;;;;5067825;28;20029;-57
2023/01/31 02:23:45;;;;;;;12.10;5.97;;;28.00;72.50;;;;;;5084892;28;20384;-60
2023/01/31 02:26:49;;;;;;;10.57;5.50;;;28.00;72.60;;;;;;5076174;28;20109;-59
2023/01/31 02:29:40;;;;;;;12.95;5.45;;;28.00;72.50;;;;;;5081327;28;20029;-57
2023/01/31 02:32:43;;;;;;;8.73;5.03;;;27.90;72.50;;;;;;5078102;28;20035;-60
2023/01/31 02:35:22;;;;;;;15.80;5.82;;;27.90;72.40;;;;;;5076225;28;20098;-58
2023/01/31 02:37:55;;;;;;;13.07;6.10;;;27.90;72.30;;;;;;5084967;28;20027;-58
2023/01/31 02:40:34;;;;;;;12.30;6.00;;;27.90;72.40;;;;;;5087074;28;20040;-58
2023/01/31 02:43:18;;;;;;;12.98;6.10;;;27.90;72.40;;;;;;5087737;28;20108;-57
2023/01/31 02:46:10;;;;;;;15.07;7.00;;;27.90;72.30;;;;;;5086722;28;20051;-56
2023/01/31 02:48:52;;;;;;;14.57;6.70;;;27.80;72.20;;;;;;5087292;28;20025;-55
2023/01/31 02:51:21;;;;;;;17.95;7.60;;;27.80;72.20;;;;;;5086778;28;20269;-60
2023/01/31 02:53:55;;;;;;;18.90;6.97;;;27.80;72.20;;;;;;5081379;28;20374;-57
2023/01/31 02:56:30;;;;;;;17.27;6.57;;;27.80;72.20;;;;;;5087025;28;20024;-56
2023/01/31 02:59:20;;;;;;;23.65;5.78;;;27.80;72.30;;;;;;5087092;28;20020;-61
2023/01/31 03:01:58;;;;;;;15.07;6.10;;;27.80;72.30;;;;;;5087082;28;20039;-56
2023/01/31 03:04:29;;;;;;;12.20;5.70;;;27.80;72.30;;;;;;5086826;28;20027;-58
2023/01/31 03:07:07;;;;;;;23.17;6.38;;;27.80;72.20;;;;;;5087084;28;20091;-59
2023/01/31 03:09:36;;;;;;;16.40;6.00;;;27.80;72.20;;;;;;5086494;28;20020;-59
2023/01/31 03:12:17;;;;;;;10.05;5.25;;;27.80;72.20;;;;;;5086877;28;20052;-60
2023/01/31 03:15:05;;;;;;;14.07;5.38;;;27.80;72.20;;;;;;5086757;28;20024;-59
2023/01/31 03:18:09;;;;;;;8.85;5.82;;;27.80;72.10;;;;;;5085675;28;20043;-58
2023/01/31 03:20:47;;;;;;;10.50;5.60;;;27.80;72.10;;;;;;5065973;28;20044;-57
2023/01/31 03:23:25;;;;;;;9.52;5.05;;;27.80;72.10;;;;;;5087106;28;20099;-57
2023/01/31 03:25:52;;;;;;;12.60;5.68;;;27.80;72.10;;;;;;5086414;28;20032;-57
2023/01/31 03:28:26;;;;;;;13.10;5.60;;;27.80;72.10;;;;;;5086193;28;20032;-62
2023/01/31 03:31:08;;;;;;;9.73;5.03;;;27.80;72.10;;;;;;5084263;28;20017;-59
2023/01/31 03:33:42;;;;;;;11.35;5.03;;;27.90;72.00;;;;;;5086403;28;20036;-58
2023/01/31 03:36:19;;;;;;;9.10;5.95;;;27.80;71.90;;;;;;5086198;28;20040;-60
2023/01/31 03:39:27;;;;;;;11.32;5.65;;;27.90;72.60;;;;;;5086249;28;20028;-61
2023/01/31 03:42:01;;;;;;;10.25;5.25;;;27.90;72.00;;;;;;5086157;28;20040;-58
2023/01/31 03:44:55;;;;;;;12.77;5.70;;;27.90;72.10;;;;;;5085918;28;20044;-58
2023/01/31 03:47:34;;;;;;;13.90;5.55;;;27.90;72.00;;;;;;5086572;28;20028;-55
2023/01/31 03:50:16;;;;;;;13.40;5.40;;;27.90;72.10;;;;;;5083865;28;20387;-56
2023/01/31 03:53:07;;;;;;;11.25;5.30;;;27.90;72.10;;;;;;5075239;28;20021;-58
2023/01/31 03:55:40;;;;;;;13.45;5.93;;;27.90;72.30;;;;;;5068981;28;20036;-59
2023/01/31 03:58:10;;;;;;;10.65;5.30;;;27.90;72.40;;;;;;5083849;28;20027;-59
2023/01/31 04:00:41;;;;;;;12.57;5.68;;;27.90;72.50;;;;;;5086046;28;20036;-56
2023/01/31 04:03:15;;;;;;;18.88;6.53;;;27.90;72.50;;;;;;5085506;28;20051;-59
2023/01/31 04:05:42;;;;;;;15.05;6.13;;;27.90;72.70;;;;;;5085533;28;20344;-62
2023/01/31 04:08:09;;;;;;;14.48;6.00;;;27.90;72.70;;;;;;5085026;28;20087;-55
2023/01/31 04:10:36;;;;;;;41.50;9.00;;;27.90;72.80;;;;;;5083365;28;20055;-62
2023/01/31 04:13:02;;;;;;;31.48;7.57;;;27.90;72.70;;;;;;5084246;28;20178;-60
2023/01/31 04:15:29;;;;;;;14.23;6.30;;;27.90;72.70;;;;;;5080536;28;20041;-59
2023/01/31 04:17:55;;;;;;;15.88;6.68;;;27.90;72.70;;;;;;5073145;28;20031;-59
2023/01/31 04:20:22;;;;;;;18.73;6.55;;;27.80;72.60;;;;;;5078610;28;20033;-59
2023/01/31 04:22:48;;;;;;;12.50;5.90;;;27.80;72.70;;;;;;5084249;28;20035;-61
2023/01/31 04:25:15;;;;;;;14.60;5.60;;;27.80;72.80;;;;;;5083751;28;20069;-62
2023/01/31 04:27:42;;;;;;;12.50;6.03;;;27.80;72.90;;;;;;5083540;28;20028;-59
2023/01/31 04:30:09;;;;;;;10.50;5.15;;;27.80;73.00;;;;;;5083749;28;20037;-55
2023/01/31 04:32:36;;;;;;;9.30;5.30;;;27.80;72.90;;;;;;5083885;28;20200;-59
2023/01/31 04:35:03;;;;;;;9.57;5.57;;;27.80;72.90;;;;;;5083455;28;20071;-58
2023/01/31 04:37:29;;;;;;;11.05;5.75;;;27.70;73.00;;;;;;5070140;28;20229;-60
2023/01/31 04:39:56;;;;;;;9.93;5.75;;;27.70;73.10;;;;;;5083674;28;20333;-65
2023/01/31 04:42:22;;;;;;;7.30;5.28;;;27.70;73.10;;;;;;5084337;28;20351;-60
2023/01/31 04:44:49;;;;;;;9.90;5.25;;;27.70;73.30;;;;;;5084425;28;20086;-61
2023/01/31 04:47:16;;;;;;;8.07;5.28;;;27.70;73.30;;;;;;5085136;28;20029;-60
2023/01/31 04:49:43;;;;;;;8.10;5.25;;;27.70;73.30;;;;;;5078446;28;20074;-59
2023/01/31 04:52:10;;;;;;;9.68;5.00;;;27.60;73.30;;;;;;5068218;28;20040;-59
2023/01/31 04:54:37;;;;;;;10.10;5.40;;;27.60;73.40;;;;;;5064886;28;20035;-63
2023/01/31 04:57:03;;;;;;;9.05;5.35;;;27.60;73.50;;;;;;5064961;28;20024;-59
2023/01/31 04:59:30;;;;;;;5.97;5.05;;;27.60;73.60;;;;;;5064798;28;20037;-58
2023/01/31 05:01:57;;;;;;;6.50;5.43;;;27.50;73.60;;;;;;5064875;28;20094;-59
2023/01/31 05:04:25;;;;;;;9.00;5.53;;;27.60;73.70;;;;;;5064599;28;20048;-61
2023/01/31 05:06:51;;;;;;;9.13;5.32;;;27.50;73.80;;;;;;5064925;28;20033;-58
2023/01/31 05:09:18;;;;;;;8.48;5.10;;;27.50;73.70;;;;;;5064534;28;20274;-60
2023/01/31 05:11:45;;;;;;;8.88;5.10;;;27.50;73.60;;;;;;5064739;28;20029;-59
2023/01/31 05:14:12;;;;;;;7.38;5.50;;;27.50;73.60;;;;;;5064586;28;20043;-55
2023/01/31 05:16:39;;;;;;;9.50;5.10;;;27.50;73.60;;;;;;5064593;28;20209;-58
2023/01/31 05:19:05;;;;;;;8.40;5.20;;;27.50;73.60;;;;;;5064541;28;20264;-58
2023/01/31 05:21:53;;;;;;;6.45;5.03;;;27.50;73.40;;;;;;5064589;28;20084;-58
2023/01/31 05:24:19;;;;;;;6.75;5.13;;;27.40;73.50;;;;;;5064203;28;20078;-57
2023/01/31 05:26:46;;;;;;;6.82;5.57;;;27.40;73.60;;;;;;5064113;28;20312;-58
2023/01/31 05:29:15;;;;;;;5.93;4.93;;;27.40;73.60;;;;;;5064261;28;20037;-57
2023/01/31 05:31:57;;;;;;;8.13;5.57;;;27.40;73.60;;;;;;5064242;28;20017;-61
2023/01/31 05:34:24;;;;;;;9.27;5.20;;;27.40;73.70;;;;;;5064145;28;20107;-58
2023/01/31 05:36:52;;;;;;;10.75;6.03;;;27.40;73.80;;;;;;5064333;28;20094;-58
2023/01/31 05:39:18;;;;;;;5.78;5.18;;;27.30;73.80;;;;;;5064014;28;20028;-59
2023/01/31 05:41:45;;;;;;;10.25;5.53;;;27.30;73.80;;;;;;5073103;28;20031;-58
2023/01/31 05:44:13;;;;;;;9.32;5.20;;;27.30;73.90;;;;;;5084055;28;20267;-61
2023/01/31 05:46:40;;;;;;;6.68;5.80;;;27.30;73.80;;;;;;5084020;28;20107;-59
2023/01/31 05:49:06;;;;;;;7.43;5.80;;;27.30;73.70;;;;;;5083347;28;20029;-58
2023/01/31 05:51:33;;;;;;;6.45;5.78;;;27.30;74.20;;;;;;5084237;28;20035;-61
2023/01/31 05:54:00;;;;;;;6.78;5.80;;;27.30;73.90;;;;;;5083819;28;20024;-59
2023/01/31 05:56:26;;;;;;;10.50;5.75;;;27.30;74.20;;;;;;5084048;28;20028;-58
2023/01/31 05:58:53;;;;;;;8.90;5.82;;;27.30;74.50;;;;;;5083963;28;20036;-59
2023/01/31 06:01:22;;;;;;;10.63;5.85;;;27.30;74.80;;;;;;5083833;28;20488;-58
2023/01/31 06:03:49;;;;;;;8.60;5.73;;;27.20;75.00;;;;;;5083844;28;20262;-59
2023/01/31 06:06:16;;;;;;;8.65;5.90;;;27.20;75.10;;;;;;5083929;28;20009;-61
2023/01/31 06:08:42;;;;;;;7.55;5.55;;;27.20;75.10;;;;;;5083752;28;20054;-63
2023/01/31 06:11:10;;;;;;;6.80;6.10;;;27.20;75.10;;;;;;5083812;28;20029;-59
2023/01/31 06:13:38;;;;;;;6.15;5.55;;;27.10;75.20;;;;;;5083954;28;20027;-59
2023/01/31 06:16:06;;;;;;;8.05;6.03;;;27.10;75.20;;;;;;5083655;28;20046;-58
2023/01/31 06:18:32;;;;;;;7.35;6.10;;;27.10;75.30;;;;;;5083879;28;20038;-58
2023/01/31 06:20:59;;;;;;;9.50;6.32;;;27.10;75.30;;;;;;5083794;28;20095;-57
2023/01/31 06:23:25;;;;;;;6.70;6.00;;;27.10;75.30;;;;;;5076969;28;20037;-58
2023/01/31 06:25:54;;;;;;;8.07;5.93;;;27.10;75.40;;;;;;5067017;28;20029;-59
2023/01/31 06:28:21;;;;;;;7.13;6.05;;;27.00;75.40;;;;;;5064010;28;20252;-58
2023/01/31 06:30:48;;;;;;;6.93;5.82;;;27.00;75.40;;;;;;5063514;28;20318;-59
2023/01/31 06:33:15;;;;;;;6.80;6.10;;;27.00;75.40;;;;;;5064187;28;20351;-59
2023/01/31 06:35:42;;;;;;;7.95;6.40;;;27.00;75.50;;;;;;5063658;28;20079;-61
2023/01/31 06:38:11;;;;;;;6.68;5.85;;;26.90;75.40;;;;;;5063781;28;20209;-59
2023/01/31 06:40:37;;;;;;;7.53;5.97;;;27.00;75.60;;;;;;5063611;28;20041;-59
2023/01/31 06:43:04;;;;;;;9.70;5.88;;;26.90;75.40;;;;;;5063519;28;20252;-59
2023/01/31 06:45:31;;;;;;;8.40;5.65;;;26.90;75.50;;;;;;5063246;28;20044;-62
2023/01/31 06:47:57;;;;;;;7.97;5.72;;;26.90;75.40;;;;;;5063807;28;20029;-59
2023/01/31 06:50:24;;;;;;;7.95;6.05;;;26.90;75.40;;;;;;5063573;28;20067;-59
2023/01/31 06:52:50;;;;;;;7.95;5.45;;;26.90;75.40;;;;;;5063635;28;20029;-58
2023/01/31 06:55:17;;;;;;;8.35;5.75;;;26.90;75.30;;;;;;5063377;28;20063;-59
2023/01/31 06:57:50;;;;;;;5.90;5.32;;;26.90;75.30;;;;;;5063249;28;20021;-58
2023/01/31 07:00:17;;;;;;;7.45;5.60;;;26.90;75.20;;;;;;5064021;28;20325;-57
2023/01/31 07:02:45;;;;;;;7.22;5.32;;;26.90;75.20;;;;;;5067615;28;20075;-60
2023/01/31 07:05:12;;;;;;;6.85;5.53;;;26.90;75.10;;;;;;5067170;28;20082;-59
2023/01/31 07:07:38;;;;;;;6.95;5.70;;;26.90;75.00;;;;;;5067397;28;20017;-59
2023/01/31 07:10:05;;;;;;;7.90;5.20;;;26.90;75.10;;;;;;5067028;28;20048;-60
2023/01/31 07:12:32;;;;;;;8.57;5.90;;;26.90;75.10;;;;;;5067231;28;19904;-58
2023/01/31 07:14:59;;;;;;;6.65;5.40;;;26.90;75.10;;;;;;5066792;28;20029;-58
2023/01/31 07:17:25;;;;;;;9.05;5.70;;;26.90;75.00;;;;;;5067096;28;20033;-58
2023/01/31 07:19:52;;;;;;;6.63;5.45;;;26.90;75.10;;;;;;5069372;28;20017;-59
2023/01/31 07:22:18;;;;;;;7.28;5.70;;;26.80;75.00;;;;;;5075665;28;20305;-59
2023/01/31 07:24:45;;;;;;;7.63;5.47;;;26.90;75.00;;;;;;5066614;28;20139;-58
2023/01/31 07:27:13;;;;;;;6.57;5.22;;;26.90;75.00;;;;;;5066925;28;20329;-56
2023/01/31 07:29:39;;;;;;;6.68;5.18;;;26.90;74.90;;;;;;5066443;28;20040;-59
2023/01/31 07:32:06;;;;;;;7.78;5.45;;;26.80;74.70;;;;;;5066804;28;20253;-57
2023/01/31 07:34:33;;;;;;;5.85;5.22;;;26.90;74.70;;;;;;5066703;28;20041;-60
2023/01/31 07:37:00;;;;;;;5.70;5.13;;;26.80;74.60;;;;;;5066731;28;20020;-61
2023/01/31 07:39:27;;;;;;;5.95;5.15;;;26.90;74.60;;;;;;5066550;28;20184;-59
2023/01/31 07:41:54;;;;;;;6.15;5.10;;;26.90;74.60;;;;;;5066509;28;20040;-61
2023/01/31 07:44:20;;;;;;;6.97;5.43;;;26.90;74.40;;;;;;5066051;28;20052;-63
2023/01/31 07:46:47;;;;;;;8.02;5.38;;;26.90;74.40;;;;;;5066319;28;20056;-59
2023/01/31 07:49:14;;;;;;;7.45;5.10;;;26.80;74.30;;;;;;5066268;28;20021;-60
2023/01/31 07:51:41;;;;;;;6.00;5.25;;;26.90;74.40;;;;;;5066320;28;20098;-58
2023/01/31 07:54:10;;;;;;;6.32;5.70;;;26.90;74.40;;;;;;5069159;28;20044;-60
2023/01/31 07:56:36;;;;;;;6.15;5.10;;;26.80;74.40;;;;;;5072448;28;20025;-60
2023/01/31 07:59:03;;;;;;;11.65;5.43;;;26.80;74.40;;;;;;5066452;28;20055;-60
2023/01/31 08:04:16;;;;;;;7.60;5.45;;;26.80;74.50;;;;;;5065919;28;20060;-60
2023/01/31 08:06:44;;;;;;;6.45;5.13;;;26.80;74.40;;;;;;5065953;28;20064;-60
2023/01/31 08:09:11;;;;;;;12.05;4.90;;;26.70;74.40;;;;;;5065861;28;20325;-64
2023/01/31 08:11:38;;;;;;;7.28;5.22;;;26.70;74.50;;;;;;5065698;28;20302;-60
2023/01/31 08:14:07;;;;;;;14.55;5.82;;;26.70;74.60;;;;;;5065368;28;20217;-59
2023/01/31 08:16:35;;;;;;;11.68;6.15;;;26.70;74.70;;;;;;5065711;28;20059;-62
2023/01/31 08:19:02;;;;;;;13.07;6.00;;;26.70;74.90;;;;;;5065961;28;20317;-56
2023/01/31 08:21:29;;;;;;;11.00;5.80;;;26.70;75.10;;;;;;5065712;28;20301;-60
2023/01/31 08:23:55;;;;;;;8.68;5.85;;;26.60;75.10;;;;;;5065571;28;20031;-58
2023/01/31 08:26:22;;;;;;;12.07;5.40;;;26.60;75.30;;;;;;5065585;28;20278;-55
2023/01/31 08:28:50;;;;;;;10.07;5.50;;;26.60;75.50;;;;;;5065600;28;20100;-59
2023/01/31 08:31:23;;;;;;;8.88;5.80;;;26.60;75.60;;;;;;5065641;28;20036;-60
2023/01/31 08:33:51;;;;;;;10.13;5.80;;;26.60;75.60;;;;;;5065293;28;20049;-59
2023/01/31 08:36:24;;;;;;;7.57;5.70;;;26.50;75.50;;;;;;5065385;28;20029;-60
2023/01/31 08:38:51;;;;;;;8.95;5.68;;;26.50;75.60;;;;;;5065477;28;20041;-59
2023/01/31 08:41:19;;;;;;;10.02;5.90;;;26.50;75.50;;;;;;5065092;28;20035;-60
2023/01/31 08:43:49;;;;;;;9.85;5.60;;;26.50;75.20;;;;;;5064977;28;20091;-59
2023/01/31 08:46:16;;;;;;;7.22;5.68;;;26.50;74.90;;;;;;5065221;28;20313;-60
2023/01/31 08:48:43;;;;;;;9.30;6.03;;;26.50;74.60;;;;;;5065061;28;20025;-57
2023/01/31 08:51:12;;;;;;;9.23;5.88;;;26.50;74.50;;;;;;5065105;28;20058;-59
2023/01/31 08:53:43;;;;;;;8.60;5.75;;;26.50;74.30;;;;;;5065336;28;20025;-61
2023/01/31 08:56:11;;;;;;;8.57;5.70;;;26.50;73.80;;;;;;5064881;28;20063;-60
2023/01/31 08:58:43;;;;;;;6.50;5.60;;;26.50;73.30;;;;;;5064891;28;20032;-57
2023/01/31 09:01:12;;;;;;;8.73;5.70;;;26.50;73.30;;;;;;5064901;28;20362;-59
2023/01/31 09:03:40;;;;;;;6.18;5.57;;;26.50;73.60;;;;;;5064786;28;20106;-55
2023/01/31 09:06:18;;;;;;;6.28;5.45;;;26.50;73.70;;;;;;5064550;28;20036;-59
2023/01/31 09:08:45;;;;;;;9.80;5.80;;;26.50;73.90;;;;;;5064530;28;20021;-59
2023/01/31 09:11:21;;;;;;;6.65;5.50;;;26.40;73.90;;;;;;5064733;28;20320;-59
2023/01/31 09:13:50;;;;;;;8.23;5.50;;;26.50;74.10;;;;;;5064636;28;20324;-61
2023/01/31 09:16:16;;;;;;;7.38;5.43;;;26.50;74.50;;;;;;5064528;28;20087;-56
2023/01/31 09:18:43;;;;;;;7.90;5.75;;;26.40;74.70;;;;;;5064468;28;20035;-60
2023/01/31 09:21:18;;;;;;;10.07;5.80;;;26.50;75.00;;;;;;5064357;28;20017;-59
2023/01/31 09:23:47;;;;;;;7.60;5.80;;;26.40;75.20;;;;;;5064388;28;20035;-59
2023/01/31 09:26:15;;;;;;;8.00;6.05;;;26.40;75.40;;;;;;5064296;28;20036;-62
2023/01/31 09:28:42;;;;;;;8.85;5.57;;;26.40;75.40;;;;;;5064201;28;20031;-59
2023/01/31 09:31:14;;;;;;;7.45;5.05;;;26.40;75.60;;;;;;5064230;28;20067;-60
2023/01/31 09:33:41;;;;;;;6.70;5.07;;;26.40;75.70;;;;;;5064343;28;20092;-59
2023/01/31 09:36:10;;;;;;;9.00;5.75;;;26.40;75.80;;;;;;5064038;28;20217;-60
2023/01/31 09:38:37;;;;;;;8.43;5.55;;;26.30;75.70;;;;;;5064151;28;20024;-59
2023/01/31 09:41:09;;;;;;;6.70;5.50;;;26.30;75.90;;;;;;5064128;28;20039;-60
2023/01/31 09:43:40;;;;;;;7.03;5.88;;;26.30;75.80;;;;;;5063922;28;20079;-59
2023/01/31 09:46:14;;;;;;;8.77;6.05;;;26.30;76.00;;;;;;5063946;28;20321;-59
2023/01/31 09:48:45;;;;;;;8.75;5.22;;;26.30;76.10;;;;;;5063997;28;20035;-59
2023/01/31 09:51:13;;;;;;;8.90;6.05;;;26.30;75.90;;;;;;5063915;28;20241;-60
2023/01/31 09:53:41;;;;;;;10.48;5.88;;;26.30;75.70;;;;;;5063929;28;20051;-61
2023/01/31 09:56:31;;;;;;;8.23;5.53;;;26.30;75.30;;;;;;5073392;28;20059;-62
2023/01/31 09:59:23;;;;;;;7.75;5.75;;;26.30;74.90;;;;;;5083958;28;20032;-60
2023/01/31 10:01:49;;;;;;;10.02;5.90;;;26.20;74.20;;;;;;5084159;28;20317;-60
2023/01/31 10:04:57;;;;;;;7.00;5.50;;;26.20;73.80;;;;;;5084195;28;20053;-59
2023/01/31 10:07:33;;;;;;;8.68;6.22;;;26.20;73.50;;;;;;5084388;28;20051;-60
2023/01/31 10:10:32;;;;;;;8.40;5.93;;;26.20;73.90;;;;;;5083932;28;20021;-60
2023/01/31 10:13:03;;;;;;;9.23;6.00;;;26.20;73.40;;;;;;5084528;28;20099;-59
2023/01/31 10:15:39;;;;;;;13.07;6.10;;;26.20;73.50;;;;;;5084376;28;20024;-60
2023/01/31 10:18:27;;;;;;;11.25;6.10;;;26.20;73.50;;;;;;5084189;28;20040;-61
2023/01/31 10:20:59;;;;;;;15.73;6.07;;;26.20;73.40;;;;;;5083840;28;20106;-64
2023/01/31 10:23:52;;;;;;;7.82;5.70;;;26.20;73.50;;;;;;5083605;28;20060;-60
2023/01/31 10:26:31;;;;;;;9.57;5.90;;;26.10;73.50;;;;;;5083597;28;20110;-60
2023/01/31 10:29:05;;;;;;;8.18;5.47;;;26.20;73.60;;;;;;5084054;28;20073;-61
2023/01/31 10:31:37;;;;;;;10.43;5.70;;;26.20;73.50;;;;;;5083668;28;20027;-62
2023/01/31 10:34:08;;;;;;;;;;;26.20;73.60;;;;;;5082642;28;20284;-60
2023/01/31 10:36:58;;;;;;;9.93;5.55;;;26.10;73.40;;;;;;5086707;28;19904;-60
2023/01/31 10:39:36;;;;;;;11.95;5.70;;;26.10;73.40;;;;;;5083138;28;20154;-61
2023/01/31 10:42:21;;;;;;;10.70;6.00;;;26.10;73.40;;;;;;5087782;28;20028;-60
2023/01/31 10:44:50;;;;;;;12.35;6.65;;;26.10;73.30;;;;;;5087291;28;20049;-58
2023/01/31 10:47:19;;;;;;;10.65;6.00;;;26.10;73.10;;;;;;5087669;28;20244;-61
2023/01/31 10:49:49;;;;;;;12.60;6.45;;;26.10;73.00;;;;;;5087469;28;20032;-61
2023/01/31 10:52:18;;;;;;;13.40;6.18;;;26.10;72.80;;;;;;5087899;28;20319;-61
2023/01/31 10:54:58;;;;;;;23.85;6.03;;;26.10;72.60;;;;;;5087338;28;20059;-60
2023/01/31 10:57:25;;;;;;;20.83;6.30;;;26.10;72.60;;;;;;5087473;28;20319;-60
2023/01/31 10:59:54;;;;;;;18.73;6.75;;;26.20;72.50;;;;;;5087187;28;20020;-62
2023/01/31 11:02:27;;;;;;;17.58;6.10;;;26.10;72.30;;;;;;5086462;28;20033;-62
2023/01/31 11:04:54;;;;;;;;;;;26.20;72.40;;;;;;5087349;28;20369;-61
2023/01/31 11:07:22;;;;;;;18.73;6.53;;;26.10;72.30;;;;;;5087219;28;19942;-62
2023/01/31 11:09:52;;;;;;;16.27;6.28;;;26.10;72.40;;;;;;5074562;28;20025;-60
2023/01/31 11:12:21;;;;;;;21.90;6.75;;;26.10;73.00;;;;;;5069943;28;20027;-60
2023/01/31 11:15:18;;;;;;;21.42;6.95;;;26.10;72.90;;;;;;5078573;28;20320;-61
2023/01/31 11:17:47;;;;;;;16.67;6.80;;;26.10;73.40;;;;;;5059998;28;20094;-60
2023/01/31 11:20:36;;;;;;;18.40;7.40;;;26.10;74.10;;;;;;5076610;28;20025;-60
2023/01/31 11:23:05;;;;;;;22.08;7.45;;;26.00;74.80;;;;;;5076485;28;20237;-57
2023/01/31 11:25:33;;;;;;;13.75;6.95;;;26.00;75.20;;;;;;5080307;28;20100;-60
2023/01/31 11:28:19;;;;;;;28.75;8.00;;;26.00;75.60;;;;;;5077056;28;20331;-59
2023/01/31 11:30:49;;;;;;;26.58;8.02;;;26.10;75.80;;;;;;5076078;28;20016;-58
2023/01/31 11:33:56;;;;;;;25.73;7.57;;;26.00;75.40;;;;;;5079106;28;20036;-57
2023/01/31 11:36:23;;;;;;;18.55;7.50;;;26.10;75.40;;;;;;5045301;28;20036;-58
2023/01/31 11:38:50;;;;;;;23.63;7.70;;;26.10;75.30;;;;;;5086040;28;20309;-58
2023/01/31 11:41:36;;;;;;;14.35;7.28;;;26.10;75.30;;;;;;5086374;28;20027;-59
2023/01/31 11:44:12;;;;;;;24.52;8.25;;;26.10;75.20;;;;;;5084336;28;20060;-58
2023/01/31 11:46:54;;;;;;;22.45;7.60;;;26.10;75.00;;;;;;5083604;28;20025;-56
2023/01/31 11:49:42;;;;;;;25.13;8.23;;;26.10;75.00;;;;;;5084612;28;20032;-58
2023/01/31 11:52:28;;;;;;;22.13;7.57;;;26.20;75.00;;;;;;5083820;28;20013;-58
2023/01/31 11:54:57;;;;;;;21.95;7.68;;;26.20;75.10;;;;;;5084292;28;20032;-55
2023/01/31 11:57:29;;;;;;;26.23;8.48;;;26.20;75.20;;;;;;5085690;28;20253;-58
2023/01/31 12:00:00;;;;;;;23.10;8.77;;;26.20;75.30;;;;;;5086256;28;20198;-57
2023/01/31 12:02:30;;;;;;;19.40;8.48;;;26.20;75.40;;;;;;5085789;28;20032;-59
2023/01/31 12:04:59;;;;;;;25.40;8.02;;;26.20;75.50;;;;;;5086428;28;20040;-58
2023/01/31 12:07:48;;;;;;;22.27;7.88;;;26.20;75.50;;;;;;5086650;28;20025;-57
2023/01/31 12:10:36;;;;;;;20.33;7.90;;;26.20;75.70;;;;;;5086428;28;20039;-57
2023/01/31 12:13:11;;;;;;;23.95;8.10;;;26.30;75.80;;;;;;5086688;28;20024;-58
2023/01/31 12:15:50;;;;;;;17.98;8.13;;;26.30;75.90;;;;;;5086206;28;20041;-64
2023/01/31 12:18:43;;;;;;;19.95;7.97;;;26.30;76.10;;;;;;5086615;28;20043;-58
2023/01/31 12:21:18;;;;;;;18.20;8.63;;;26.30;76.10;;;;;;5086055;28;20047;-57
2023/01/31 12:24:11;;;;;;;19.92;8.55;;;26.30;76.20;;;;;;5085907;28;20103;-59
2023/01/31 12:26:46;;;;;;;13.88;7.85;;;26.40;76.40;;;;;;5085977;28;20043;-59
2023/01/31 12:29:44;;;;;;;16.85;8.13;;;26.40;76.60;;;;;;5086087;28;20032;-61
2023/01/31 12:32:19;;;;;;;15.15;7.97;;;26.40;76.40;;;;;;5086374;28;20293;-57
2023/01/31 12:35:24;;;;;;;16.17;8.32;;;26.40;76.40;;;;;;5086250;28;20025;-58
2023/01/31 12:38:16;;;;;;;19.73;8.35;;;26.40;76.60;;;;;;5086539;28;20071;-60
2023/01/31 12:41:01;;;;;;;19.10;8.05;;;26.40;76.60;;;;;;5085894;28;20031;-58
2023/01/31 12:43:31;;;;;;;18.38;7.95;;;26.50;76.60;;;;;;5085687;28;20048;-58
2023/01/31 12:46:08;;;;;;;16.13;8.15;;;26.50;76.50;;;;;;5085469;28;20028;-60
2023/01/31 12:48:43;;;;;;;32.03;9.63;;;26.60;76.40;;;;;;5085443;28;20264;-59
2023/01/31 12:51:10;;;;;;;30.70;8.63;;;26.60;76.40;;;;;;5084990;28;20024;-57
2023/01/31 12:53:45;;;;;;;20.17;7.90;;;26.60;76.50;;;;;;5085250;28;20024;-58
2023/01/31 12:56:15;;;;;;;17.55;8.02;;;26.60;76.50;;;;;;5085445;28;20024;-59
2023/01/31 12:59:06;;;;;;;17.67;7.78;;;26.60;76.80;;;;;;5085530;28;20032;-59
2023/01/31 13:01:37;;;;;;;21.50;7.57;;;26.70;77.00;;;;;;5085417;28;20056;-60
2023/01/31 13:04:30;;;;;;;17.17;7.57;;;26.70;76.80;;;;;;5085639;28;20057;-58
2023/01/31 13:06:59;;;;;;;17.20;7.22;;;26.70;76.70;;;;;;5085320;28;20317;-56
2023/01/31 13:09:34;;;;;;;12.73;7.65;;;26.60;76.30;;;;;;5085183;28;20028;-59